sensor_id;sensor_type;location;lat;lon;timestamp;temperature;humidity
34776;DHT22;20989;52.566;13.346;2022-11-21T00:02:48;19.70;52.80
34776;DHT22;20989;52.566;13.346;2022-11-21T00:05:49;19.70;52.90
34776;DHT22;20989;52.566;13.346;2022-11-21T00:08:50;19.70;53.00
34776;DHT22;20989;52.566;13.346;2022-11-21T00:11:50;19.70;52.80
34776;DHT22;20989;52.566;13.346;2022-11-21T00:14:52;19.70;53.30
34776;DHT22;20989;52.566;13.346;2022-11-21T00:17:52;19.60;53.20
34776;DHT22;20989;52.566;13.346;2022-11-21T00:20:53;19.70;53.60
34776;DHT22;20989;52.566;13.346;2022-11-21T00:23:54;19.60;53.10
34776;DHT22;20989;52.566;13.346;2022-11-21T00:26:54;19.60;52.80
34776;DHT22;20989;52.566;13.346;2022-11-21T00:29:55;19.70;52.70
34776;DHT22;20989;52.566;13.346;2022-11-21T00:32:59;19.70;52.40
34776;DHT22;20989;52.566;13.346;2022-11-21T00:36:07;19.80;52.30
34776;DHT22;20989;52.566;13.346;2022-11-21T00:39:08;19.80;52.50
34776;DHT22;20989;52.566;13.346;2022-11-21T00:42:09;19.80;52.20
34776;DHT22;20989;52.566;13.346;2022-11-21T00:45:10;19.90;52.20
34776;DHT22;20989;52.566;13.346;2022-11-21T00:48:11;19.90;52.10
34776;DHT22;20989;52.566;13.346;2022-11-21T00:51:12;19.90;52.10
34776;DHT22;20989;52.566;13.346;2022-11-21T00:54:14;19.90;52.10
34776;DHT22;20989;52.566;13.346;2022-11-21T00:57:14;19.90;52.60
34776;DHT22;20989;52.566;13.346;2022-11-21T01:00:16;19.90;52.10
34776;DHT22;20989;52.566;13.346;2022-11-21T01:03:16;19.90;52.60
34776;DHT22;20989;52.566;13.346;2022-11-21T01:06:17;19.90;52.00
34776;DHT22;20989;52.566;13.346;2022-11-21T01:09:18;19.90;52.20
34776;DHT22;20989;52.566;13.346;2022-11-21T01:12:18;19.90;52.10
34776;DHT22;20989;52.566;13.346;2022-11-21T01:15:19;19.90;52.20
34776;DHT22;20989;52.566;13.346;2022-11-21T01:18:20;19.90;52.20
34776;DHT22;20989;52.566;13.346;2022-11-21T01:21:26;19.90;52.20
34776;DHT22;20989;52.566;13.346;2022-11-21T01:24:27;19.90;52.20
34776;DHT22;20989;52.566;13.346;2022-11-21T01:27:28;19.90;52.30
34776;DHT22;20989;52.566;13.346;2022-11-21T01:30:28;19.90;52.20
34776;DHT22;20989;52.566;13.346;2022-11-21T01:33:29;19.90;52.30
34776;DHT22;20989;52.566;13.346;2022-11-21T01:36:32;19.90;52.30
34776;DHT22;20989;52.566;13.346;2022-11-21T01:39:33;19.90;52.40
34776;DHT22;20989;52.566;13.346;2022-11-21T01:42:53;19.90;52.30
34776;DHT22;20989;52.566;13.346;2022-11-21T01:46:03;19.90;52.30
34776;DHT22;20989;52.566;13.346;2022-11-21T01:49:11;19.80;52.30
34776;DHT22;20989;52.566;13.346;2022-11-21T01:52:14;19.80;52.40
34776;DHT22;20989;52.566;13.346;2022-11-21T01:55:16;19.80;52.30
34776;DHT22;20989;52.566;13.346;2022-11-21T01:58:17;19.90;52.40
34776;DHT22;20989;52.566;13.346;2022-11-21T02:01:18;19.80;52.30
34776;DHT22;20989;52.566;13.346;2022-11-21T02:04:21;19.80;52.50
34776;DHT22;20989;52.566;13.346;2022-11-21T02:07:23;19.80;52.40
34776;DHT22;20989;52.566;13.346;2022-11-21T02:10:25;19.80;52.50
34776;DHT22;20989;52.566;13.346;2022-11-21T02:13:26;19.80;52.50
34776;DHT22;20989;52.566;13.346;2022-11-21T02:16:27;19.80;52.40
34776;DHT22;20989;52.566;13.346;2022-11-21T02:25:55;19.80;52.40
34776;DHT22;20989;52.566;13.346;2022-11-21T02:28:57;19.80;52.50
34776;DHT22;20989;52.566;13.346;2022-11-21T02:32:02;19.80;52.50
34776;DHT22;20989;52.566;13.346;2022-11-21T02:35:03;19.80;52.50
34776;DHT22;20989;52.566;13.346;2022-11-21T02:38:16;19.80;52.50
34776;DHT22;20989;52.566;13.346;2022-11-21T02:41:21;19.80;52.40
34776;DHT22;20989;52.566;13.346;2022-11-21T02:44:38;19.80;52.40
34776;DHT22;20989;52.566;13.346;2022-11-21T02:47:42;19.80;52.50
34776;DHT22;20989;52.566;13.346;2022-11-21T02:50:45;19.80;52.40
34776;DHT22;20989;52.566;13.346;2022-11-21T02:53:46;19.80;52.40
34776;DHT22;20989;52.566;13.346;2022-11-21T02:56:46;19.80;52.50
34776;DHT22;20989;52.566;13.346;2022-11-21T02:59:47;19.80;52.50
34776;DHT22;20989;52.566;13.346;2022-11-21T03:02:48;19.80;52.50
34776;DHT22;20989;52.566;13.346;2022-11-21T03:05:48;19.80;52.50
34776;DHT22;20989;52.566;13.346;2022-11-21T03:08:49;19.80;52.50
34776;DHT22;20989;52.566;13.346;2022-11-21T03:11:50;19.80;52.50
34776;DHT22;20989;52.566;13.346;2022-11-21T03:14:51;19.80;52.50
34776;DHT22;20989;52.566;13.346;2022-11-21T03:17:51;19.80;52.50
34776;DHT22;20989;52.566;13.346;2022-11-21T03:20:52;19.80;52.50
34776;DHT22;20989;52.566;13.346;2022-11-21T03:23:52;19.80;52.60
34776;DHT22;20989;52.566;13.346;2022-11-21T03:26:53;19.80;52.50
34776;DHT22;20989;52.566;13.346;2022-11-21T03:29:54;19.80;52.50
34776;DHT22;20989;52.566;13.346;2022-11-21T03:32:55;19.80;52.50
34776;DHT22;20989;52.566;13.346;2022-11-21T03:35:56;19.80;52.50
34776;DHT22;20989;52.566;13.346;2022-11-21T03:38:57;19.80;52.60
34776;DHT22;20989;52.566;13.346;2022-11-21T03:41:58;19.80;52.50
34776;DHT22;20989;52.566;13.346;2022-11-21T03:44:58;19.70;52.50
34776;DHT22;20989;52.566;13.346;2022-11-21T03:48:00;19.80;53.00
34776;DHT22;20989;52.566;13.346;2022-11-21T03:51:01;19.70;52.50
34776;DHT22;20989;52.566;13.346;2022-11-21T03:54:01;19.70;52.50
34776;DHT22;20989;52.566;13.346;2022-11-21T03:57:02;19.70;52.50
34776;DHT22;20989;52.566;13.346;2022-11-21T04:00:03;19.70;52.50
34776;DHT22;20989;52.566;13.346;2022-11-21T04:03:04;19.70;52.50
34776;DHT22;20989;52.566;13.346;2022-11-21T04:06:05;19.70;52.60
34776;DHT22;20989;52.566;13.346;2022-11-21T04:09:05;19.70;52.60
34776;DHT22;20989;52.566;13.346;2022-11-21T04:12:06;19.70;52.60
34776;DHT22;20989;52.566;13.346;2022-11-21T04:15:07;19.70;52.50
34776;DHT22;20989;52.566;13.346;2022-11-21T04:18:09;19.80;52.60
34776;DHT22;20989;52.566;13.346;2022-11-21T04:21:09;19.80;52.60
34776;DHT22;20989;52.566;13.346;2022-11-21T04:24:10;19.70;52.60
34776;DHT22;20989;52.566;13.346;2022-11-21T04:27:11;19.70;52.50
34776;DHT22;20989;52.566;13.346;2022-11-21T04:30:12;19.70;52.50
34776;DHT22;20989;52.566;13.346;2022-11-21T04:33:14;19.80;52.50
34776;DHT22;20989;52.566;13.346;2022-11-21T04:36:15;19.70;52.60
34776;DHT22;20989;52.566;13.346;2022-11-21T04:39:15;19.70;52.60
34776;DHT22;20989;52.566;13.346;2022-11-21T04:42:16;19.70;52.60
34776;DHT22;20989;52.566;13.346;2022-11-21T04:45:17;19.70;52.70
34776;DHT22;20989;52.566;13.346;2022-11-21T04:48:17;19.70;52.60
34776;DHT22;20989;52.566;13.346;2022-11-21T04:51:18;19.70;52.60
34776;DHT22;20989;52.566;13.346;2022-11-21T04:54:19;19.70;52.60
34776;DHT22;20989;52.566;13.346;2022-11-21T04:57:19;19.70;52.70
34776;DHT22;20989;52.566;13.346;2022-11-21T05:00:38;19.70;52.70
34776;DHT22;20989;52.566;13.346;2022-11-21T05:03:39;19.70;52.60
34776;DHT22;20989;52.566;13.346;2022-11-21T05:06:39;19.70;52.60
34776;DHT22;20989;52.566;13.346;2022-11-21T05:09:40;19.70;52.60
34776;DHT22;20989;52.566;13.346;2022-11-21T05:12:41;19.70;52.60
34776;DHT22;20989;52.566;13.346;2022-11-21T05:16:01;19.70;52.60
34776;DHT22;20989;52.566;13.346;2022-11-21T05:19:01;19.70;52.60
34776;DHT22;20989;52.566;13.346;2022-11-21T05:22:02;19.70;52.60
34776;DHT22;20989;52.566;13.346;2022-11-21T05:25:03;19.70;52.60
34776;DHT22;20989;52.566;13.346;2022-11-21T05:28:04;19.70;52.70
34776;DHT22;20989;52.566;13.346;2022-11-21T05:31:05;19.70;52.60
34776;DHT22;20989;52.566;13.346;2022-11-21T05:34:06;19.70;52.70
34776;DHT22;20989;52.566;13.346;2022-11-21T05:37:06;19.70;52.70
34776;DHT22;20989;52.566;13.346;2022-11-21T05:40:07;19.70;52.70
34776;DHT22;20989;52.566;13.346;2022-11-21T05:43:10;19.70;52.70
34776;DHT22;20989;52.566;13.346;2022-11-21T05:46:30;19.70;52.70
34776;DHT22;20989;52.566;13.346;2022-11-21T05:49:31;19.70;52.60
34776;DHT22;20989;52.566;13.346;2022-11-21T05:52:31;19.70;52.60
34776;DHT22;20989;52.566;13.346;2022-11-21T05:55:35;19.80;52.40
34776;DHT22;20989;52.566;13.346;2022-11-21T05:58:36;19.90;52.40
34776;DHT22;20989;52.566;13.346;2022-11-21T06:01:37;19.80;52.30
34776;DHT22;20989;52.566;13.346;2022-11-21T06:04:56;19.90;52.40
34776;DHT22;20989;52.566;13.346;2022-11-21T06:07:57;19.90;52.10
34776;DHT22;20989;52.566;13.346;2022-11-21T06:10:57;20.00;52.10
34776;DHT22;20989;52.566;13.346;2022-11-21T06:13:58;20.20;52.10
34776;DHT22;20989;52.566;13.346;2022-11-21T06:16:59;20.40;51.70
34776;DHT22;20989;52.566;13.346;2022-11-21T06:19:59;20.50;51.40
34776;DHT22;20989;52.566;13.346;2022-11-21T06:23:00;20.60;51.60
34776;DHT22;20989;52.566;13.346;2022-11-21T06:26:03;20.80;51.30
34776;DHT22;20989;52.566;13.346;2022-11-21T06:29:04;20.90;51.40
34776;DHT22;20989;52.566;13.346;2022-11-21T06:32:04;21.00;50.90
34776;DHT22;20989;52.566;13.346;2022-11-21T06:35:05;21.10;50.90
34776;DHT22;20989;52.566;13.346;2022-11-21T06:38:06;21.20;51.00
34776;DHT22;20989;52.566;13.346;2022-11-21T06:41:13;21.20;51.00
34776;DHT22;20989;52.566;13.346;2022-11-21T06:44:14;21.20;50.80
34776;DHT22;20989;52.566;13.346;2022-11-21T06:47:14;21.20;50.80
34776;DHT22;20989;52.566;13.346;2022-11-21T06:50:15;21.30;51.00
34776;DHT22;20989;52.566;13.346;2022-11-21T06:53:16;21.30;51.00
34776;DHT22;20989;52.566;13.346;2022-11-21T06:56:17;21.40;50.80
34776;DHT22;20989;52.566;13.346;2022-11-21T06:59:17;21.50;51.10
34776;DHT22;20989;52.566;13.346;2022-11-21T07:02:18;21.50;51.10
34776;DHT22;20989;52.566;13.346;2022-11-21T07:05:19;21.60;50.60
34776;DHT22;20989;52.566;13.346;2022-11-21T07:08:19;21.60;50.70
34776;DHT22;20989;52.566;13.346;2022-11-21T07:11:20;21.60;50.80
34776;DHT22;20989;52.566;13.346;2022-11-21T07:14:21;21.60;50.60
34776;DHT22;20989;52.566;13.346;2022-11-21T07:17:21;21.60;50.60
34776;DHT22;20989;52.566;13.346;2022-11-21T07:20:22;21.70;50.80
34776;DHT22;20989;52.566;13.346;2022-11-21T07:23:23;21.70;50.70
34776;DHT22;20989;52.566;13.346;2022-11-21T07:26:23;21.70;50.40
34776;DHT22;20989;52.566;13.346;2022-11-21T07:29:24;21.70;50.40
34776;DHT22;20989;52.566;13.346;2022-11-21T07:32:25;21.50;50.40
34776;DHT22;20989;52.566;13.346;2022-11-21T07:35:26;21.50;50.20
34776;DHT22;20989;52.566;13.346;2022-11-21T07:38:27;21.50;50.00
34776;DHT22;20989;52.566;13.346;2022-11-21T07:41:28;21.50;49.80
34776;DHT22;20989;52.566;13.346;2022-11-21T07:44:29;21.50;49.70
34776;DHT22;20989;52.566;13.346;2022-11-21T07:47:29;21.50;49.70
34776;DHT22;20989;52.566;13.346;2022-11-21T07:50:30;21.50;49.70
34776;DHT22;20989;52.566;13.346;2022-11-21T07:53:31;21.50;49.80
34776;DHT22;20989;52.566;13.346;2022-11-21T07:56:32;21.40;50.00
34776;DHT22;20989;52.566;13.346;2022-11-21T07:59:33;21.50;50.20
34776;DHT22;20989;52.566;13.346;2022-11-21T08:02:33;21.50;50.00
34776;DHT22;20989;52.566;13.346;2022-11-21T08:05:38;21.60;50.30
34776;DHT22;20989;52.566;13.346;2022-11-21T08:08:40;21.70;49.80
34776;DHT22;20989;52.566;13.346;2022-11-21T08:11:40;21.60;50.80
34776;DHT22;20989;52.566;13.346;2022-11-21T08:14:41;21.70;51.10
34776;DHT22;20989;52.566;13.346;2022-11-21T08:17:42;21.60;50.70
34776;DHT22;20989;52.566;13.346;2022-11-21T08:20:44;21.60;51.90
34776;DHT22;20989;52.566;13.346;2022-11-21T08:23:45;21.60;51.30
34776;DHT22;20989;52.566;13.346;2022-11-21T08:26:46;21.60;50.90
34776;DHT22;20989;52.566;13.346;2022-11-21T08:29:47;21.60;50.90
34776;DHT22;20989;52.566;13.346;2022-11-21T08:32:48;21.60;50.50
34776;DHT22;20989;52.566;13.346;2022-11-21T08:35:48;21.60;50.80
34776;DHT22;20989;52.566;13.346;2022-11-21T08:38:49;21.60;50.70
34776;DHT22;20989;52.566;13.346;2022-11-21T08:41:50;21.60;50.40
34776;DHT22;20989;52.566;13.346;2022-11-21T08:45:04;21.60;50.50
34776;DHT22;20989;52.566;13.346;2022-11-21T08:48:09;21.70;50.40
34776;DHT22;20989;52.566;13.346;2022-11-21T08:51:10;21.70;50.80
34776;DHT22;20989;52.566;13.346;2022-11-21T08:54:11;21.70;50.30
34776;DHT22;20989;52.566;13.346;2022-11-21T08:57:12;21.70;50.50
34776;DHT22;20989;52.566;13.346;2022-11-21T09:00:13;21.80;50.00
34776;DHT22;20989;52.566;13.346;2022-11-21T09:03:14;21.70;50.40
34776;DHT22;20989;52.566;13.346;2022-11-21T09:06:14;21.80;50.10
34776;DHT22;20989;52.566;13.346;2022-11-21T09:09:15;21.80;50.10
34776;DHT22;20989;52.566;13.346;2022-11-21T09:12:16;21.70;50.10
34776;DHT22;20989;52.566;13.346;2022-11-21T09:15:16;21.70;49.70
34776;DHT22;20989;52.566;13.346;2022-11-21T09:18:36;21.70;50.00
34776;DHT22;20989;52.566;13.346;2022-11-21T09:21:37;21.70;49.90
34776;DHT22;20989;52.566;13.346;2022-11-21T09:24:37;21.70;49.90
34776;DHT22;20989;52.566;13.346;2022-11-21T09:27:38;21.70;49.30
34776;DHT22;20989;52.566;13.346;2022-11-21T09:30:39;21.70;49.90
34776;DHT22;20989;52.566;13.346;2022-11-21T09:33:40;21.80;50.60
34776;DHT22;20989;52.566;13.346;2022-11-21T09:36:41;21.90;49.70
34776;DHT22;20989;52.566;13.346;2022-11-21T09:39:42;21.80;49.30
34776;DHT22;20989;52.566;13.346;2022-11-21T09:46:25;21.90;49.00
34776;DHT22;20989;52.566;13.346;2022-11-21T09:49:42;22.00;49.10
34776;DHT22;20989;52.566;13.346;2022-11-21T09:56:04;22.10;49.40
34776;DHT22;20989;52.566;13.346;2022-11-21T09:59:07;22.10;48.90
34776;DHT22;20989;52.566;13.346;2022-11-21T10:02:22;22.30;49.10
34776;DHT22;20989;52.566;13.346;2022-11-21T10:05:40;22.40;48.30
34776;DHT22;20989;52.566;13.346;2022-11-21T10:16:08;22.40;48.20
34776;DHT22;20989;52.566;13.346;2022-11-21T10:32:46;21.90;46.60
34776;DHT22;20989;52.566;13.346;2022-11-21T10:35:50;21.80;46.70
34776;DHT22;20989;52.566;13.346;2022-11-21T10:39:05;21.80;46.80
34776;DHT22;20989;52.566;13.346;2022-11-21T10:45:13;21.90;47.00
34776;DHT22;20989;52.566;13.346;2022-11-21T10:48:16;21.80;47.10
34776;DHT22;20989;52.566;13.346;2022-11-21T10:51:21;21.80;47.20
34776;DHT22;20989;52.566;13.346;2022-11-21T10:54:24;21.90;47.30
34776;DHT22;20989;52.566;13.346;2022-11-21T10:57:47;21.90;47.80
34776;DHT22;20989;52.566;13.346;2022-11-21T11:00:57;21.90;47.40
34776;DHT22;20989;52.566;13.346;2022-11-21T11:07:27;21.90;47.60
34776;DHT22;20989;52.566;13.346;2022-11-21T11:10:28;21.90;47.50
34776;DHT22;20989;52.566;13.346;2022-11-21T11:13:29;21.90;47.60
34776;DHT22;20989;52.566;13.346;2022-11-21T11:16:35;21.90;47.70
34776;DHT22;20989;52.566;13.346;2022-11-21T11:19:36;21.90;47.70
34776;DHT22;20989;52.566;13.346;2022-11-21T11:22:37;21.90;47.70
34776;DHT22;20989;52.566;13.346;2022-11-21T11:25:37;21.90;47.70
34776;DHT22;20989;52.566;13.346;2022-11-21T11:28:38;21.90;47.70
34776;DHT22;20989;52.566;13.346;2022-11-21T11:31:40;21.90;47.80
34776;DHT22;20989;52.566;13.346;2022-11-21T11:34:57;21.90;47.80
34776;DHT22;20989;52.566;13.346;2022-11-21T11:38:00;21.90;47.90
34776;DHT22;20989;52.566;13.346;2022-11-21T11:48:35;21.90;47.90
34776;DHT22;20989;52.566;13.346;2022-11-21T11:51:44;21.90;47.90
34776;DHT22;20989;52.566;13.346;2022-11-21T11:54:51;21.90;48.00
34776;DHT22;20989;52.566;13.346;2022-11-21T11:57:55;21.90;48.00
34776;DHT22;20989;52.566;13.346;2022-11-21T12:04:45;21.90;48.10
34776;DHT22;20989;52.566;13.346;2022-11-21T12:11:17;21.90;48.10
34776;DHT22;20989;52.566;13.346;2022-11-21T12:21:19;21.90;48.20
34776;DHT22;20989;52.566;13.346;2022-11-21T12:24:20;21.90;48.10
34776;DHT22;20989;52.566;13.346;2022-11-21T12:27:31;21.90;48.20
34776;DHT22;20989;52.566;13.346;2022-11-21T12:33:37;21.90;48.10
34776;DHT22;20989;52.566;13.346;2022-11-21T12:40:31;21.90;48.00
34776;DHT22;20989;52.566;13.346;2022-11-21T12:43:54;21.90;48.60
34776;DHT22;20989;52.566;13.346;2022-11-21T12:50:21;21.90;48.10
34776;DHT22;20989;52.566;13.346;2022-11-21T13:01:22;21.90;48.20
34776;DHT22;20989;52.566;13.346;2022-11-21T13:04:40;21.90;48.20
34776;DHT22;20989;52.566;13.346;2022-11-21T13:07:42;21.80;48.20
34776;DHT22;20989;52.566;13.346;2022-11-21T13:11:12;21.80;48.20
34776;DHT22;20989;52.566;13.346;2022-11-21T13:17:57;21.80;48.20
34776;DHT22;20989;52.566;13.346;2022-11-21T13:21:01;21.90;48.20
34776;DHT22;20989;52.566;13.346;2022-11-21T13:24:02;21.90;48.10
34776;DHT22;20989;52.566;13.346;2022-11-21T13:27:02;21.90;48.10
34776;DHT22;20989;52.566;13.346;2022-11-21T13:33:08;21.90;48.20
34776;DHT22;20989;52.566;13.346;2022-11-21T13:36:56;21.90;48.20
34776;DHT22;20989;52.566;13.346;2022-11-21T13:39:33;21.90;48.20
34776;DHT22;20989;52.566;13.346;2022-11-21T13:47:07;21.90;48.20
34776;DHT22;20989;52.566;13.346;2022-11-21T13:53:29;21.90;48.40
34776;DHT22;20989;52.566;13.346;2022-11-21T14:07:24;22.00;48.10
34776;DHT22;20989;52.566;13.346;2022-11-21T14:10:32;22.20;47.40
34776;DHT22;20989;52.566;13.346;2022-11-21T14:13:36;22.30;47.60
34776;DHT22;20989;52.566;13.346;2022-11-21T14:16:43;22.00;47.40
34776;DHT22;20989;52.566;13.346;2022-11-21T14:19:47;22.00;46.90
34776;DHT22;20989;52.566;13.346;2022-11-21T14:29:40;22.20;46.50
34776;DHT22;20989;52.566;13.346;2022-11-21T14:32:41;22.40;46.20
34776;DHT22;20989;52.566;13.346;2022-11-21T14:36:31;22.50;46.20
34776;DHT22;20989;52.566;13.346;2022-11-21T14:39:08;22.60;46.90
34776;DHT22;20989;52.566;13.346;2022-11-21T14:42:14;22.60;46.40
34776;DHT22;20989;52.566;13.346;2022-11-21T14:45:20;22.60;46.40
34776;DHT22;20989;52.566;13.346;2022-11-21T14:48:25;22.50;46.50
34776;DHT22;20989;52.566;13.346;2022-11-21T14:51:26;22.40;47.10
34776;DHT22;20989;52.566;13.346;2022-11-21T14:54:33;22.50;46.70
34776;DHT22;20989;52.566;13.346;2022-11-21T14:57:40;22.50;46.80
34776;DHT22;20989;52.566;13.346;2022-11-21T15:01:21;22.50;46.80
34776;DHT22;20989;52.566;13.346;2022-11-21T15:04:42;22.60;46.70
34776;DHT22;20989;52.566;13.346;2022-11-21T15:07:44;22.50;46.80
34776;DHT22;20989;52.566;13.346;2022-11-21T15:10:45;22.50;46.80
34776;DHT22;20989;52.566;13.346;2022-11-21T15:13:47;22.50;46.80
34776;DHT22;20989;52.566;13.346;2022-11-21T15:16:52;22.50;46.90
34776;DHT22;20989;52.566;13.346;2022-11-21T15:20:26;22.50;46.90
34776;DHT22;20989;52.566;13.346;2022-11-21T15:23:37;22.50;46.90
34776;DHT22;20989;52.566;13.346;2022-11-21T15:26:43;22.20;46.50
34776;DHT22;20989;52.566;13.346;2022-11-21T15:29:43;21.70;42.50
34776;DHT22;20989;52.566;13.346;2022-11-21T15:33:07;21.40;40.60
34776;DHT22;20989;52.566;13.346;2022-11-21T15:36:12;21.30;38.90
34776;DHT22;20989;52.566;13.346;2022-11-21T15:39:20;21.20;36.70
34776;DHT22;20989;52.566;13.346;2022-11-21T15:45:31;21.10;37.70
34776;DHT22;20989;52.566;13.346;2022-11-21T15:48:32;21.00;35.00
34776;DHT22;20989;52.566;13.346;2022-11-21T15:51:37;20.90;35.90
34776;DHT22;20989;52.566;13.346;2022-11-21T15:54:38;20.90;37.50
34776;DHT22;20989;52.566;13.346;2022-11-21T15:57:39;20.90;37.10
34776;DHT22;20989;52.566;13.346;2022-11-21T16:00:40;20.80;37.60
34776;DHT22;20989;52.566;13.346;2022-11-21T16:03:41;21.20;38.50
34776;DHT22;20989;52.566;13.346;2022-11-21T16:06:42;21.50;38.30
34776;DHT22;20989;52.566;13.346;2022-11-21T16:09:43;21.70;38.80
34776;DHT22;20989;52.566;13.346;2022-11-21T16:12:45;21.80;37.90
34776;DHT22;20989;52.566;13.346;2022-11-21T16:15:46;21.90;39.00
34776;DHT22;20989;52.566;13.346;2022-11-21T16:18:46;22.00;39.70
34776;DHT22;20989;52.566;13.346;2022-11-21T16:21:47;22.00;40.20
34776;DHT22;20989;52.566;13.346;2022-11-21T16:24:48;22.10;40.30
34776;DHT22;20989;52.566;13.346;2022-11-21T16:27:49;22.20;40.80
34776;DHT22;20989;52.566;13.346;2022-11-21T16:30:50;22.30;41.10
34776;DHT22;20989;52.566;13.346;2022-11-21T16:33:51;22.30;40.60
34776;DHT22;20989;52.566;13.346;2022-11-21T16:36:51;22.40;41.70
34776;DHT22;20989;52.566;13.346;2022-11-21T16:39:53;22.40;41.30
34776;DHT22;20989;52.566;13.346;2022-11-21T16:43:09;22.50;41.40
34776;DHT22;20989;52.566;13.346;2022-11-21T16:46:10;22.50;41.90
34776;DHT22;20989;52.566;13.346;2022-11-21T16:49:11;22.60;41.60
34776;DHT22;20989;52.566;13.346;2022-11-21T16:52:12;22.60;41.80
34776;DHT22;20989;52.566;13.346;2022-11-21T16:55:13;22.60;41.90
34776;DHT22;20989;52.566;13.346;2022-11-21T16:58:13;22.60;42.00
34776;DHT22;20989;52.566;13.346;2022-11-21T17:01:22;22.60;42.40
34776;DHT22;20989;52.566;13.346;2022-11-21T17:04:23;22.60;42.50
34776;DHT22;20989;52.566;13.346;2022-11-21T17:07:24;22.70;42.60
34776;DHT22;20989;52.566;13.346;2022-11-21T17:10:25;22.60;42.40
34776;DHT22;20989;52.566;13.346;2022-11-21T17:13:26;22.70;42.80
34776;DHT22;20989;52.566;13.346;2022-11-21T17:16:29;22.70;42.40
34776;DHT22;20989;52.566;13.346;2022-11-21T17:19:30;22.70;42.60
34776;DHT22;20989;52.566;13.346;2022-11-21T17:22:31;22.70;42.80
34776;DHT22;20989;52.566;13.346;2022-11-21T17:25:31;22.70;42.80
34776;DHT22;20989;52.566;13.346;2022-11-21T17:28:33;22.70;43.00
34776;DHT22;20989;52.566;13.346;2022-11-21T17:31:34;22.40;42.50
34776;DHT22;20989;52.566;13.346;2022-11-21T17:34:34;22.40;41.80
34776;DHT22;20989;52.566;13.346;2022-11-21T17:37:35;22.50;42.60
34776;DHT22;20989;52.566;13.346;2022-11-21T17:40:36;22.60;41.70
34776;DHT22;20989;52.566;13.346;2022-11-21T17:43:37;22.70;42.50
34776;DHT22;20989;52.566;13.346;2022-11-21T17:46:38;22.70;42.20
34776;DHT22;20989;52.566;13.346;2022-11-21T17:49:38;22.80;42.70
34776;DHT22;20989;52.566;13.346;2022-11-21T17:52:39;22.70;42.90
34776;DHT22;20989;52.566;13.346;2022-11-21T17:55:41;22.70;42.60
34776;DHT22;20989;52.566;13.346;2022-11-21T17:58:41;22.80;42.50
34776;DHT22;20989;52.566;13.346;2022-11-21T18:01:42;22.70;43.20
34776;DHT22;20989;52.566;13.346;2022-11-21T18:04:43;22.70;43.40
34776;DHT22;20989;52.566;13.346;2022-11-21T18:07:44;22.70;43.20
34776;DHT22;20989;52.566;13.346;2022-11-21T18:10:51;22.70;43.50
34776;DHT22;20989;52.566;13.346;2022-11-21T18:13:53;22.80;43.50
34776;DHT22;20989;52.566;13.346;2022-11-21T18:16:53;22.80;43.30
34776;DHT22;20989;52.566;13.346;2022-11-21T18:19:54;22.70;43.50
34776;DHT22;20989;52.566;13.346;2022-11-21T18:22:55;22.50;44.60
34776;DHT22;20989;52.566;13.346;2022-11-21T18:26:07;22.30;44.60
34776;DHT22;20989;52.566;13.346;2022-11-21T18:29:09;22.30;44.50
34776;DHT22;20989;52.566;13.346;2022-11-21T18:32:10;22.20;44.50
34776;DHT22;20989;52.566;13.346;2022-11-21T18:35:10;22.20;44.80
34776;DHT22;20989;52.566;13.346;2022-11-21T18:38:11;22.10;45.00
34776;DHT22;20989;52.566;13.346;2022-11-21T18:41:14;22.00;45.00
34776;DHT22;20989;52.566;13.346;2022-11-21T18:44:15;22.00;45.00
34776;DHT22;20989;52.566;13.346;2022-11-21T18:47:16;21.90;45.50
34776;DHT22;20989;52.566;13.346;2022-11-21T18:50:17;22.00;45.10
34776;DHT22;20989;52.566;13.346;2022-11-21T18:53:18;21.90;45.40
34776;DHT22;20989;52.566;13.346;2022-11-21T18:56:19;21.90;45.70
34776;DHT22;20989;52.566;13.346;2022-11-21T18:59:20;21.80;45.90
34776;DHT22;20989;52.566;13.346;2022-11-21T19:02:20;21.80;45.80
34776;DHT22;20989;52.566;13.346;2022-11-21T19:05:21;21.80;45.60
34776;DHT22;20989;52.566;13.346;2022-11-21T19:08:22;21.80;45.60
34776;DHT22;20989;52.566;13.346;2022-11-21T19:11:27;21.80;45.80
34776;DHT22;20989;52.566;13.346;2022-11-21T19:14:28;21.70;46.20
34776;DHT22;20989;52.566;13.346;2022-11-21T19:17:29;21.70;46.30
34776;DHT22;20989;52.566;13.346;2022-11-21T19:20:33;21.60;46.30
34776;DHT22;20989;52.566;13.346;2022-11-21T19:23:36;21.60;46.40
34776;DHT22;20989;52.566;13.346;2022-11-21T19:26:38;21.60;46.30
34776;DHT22;20989;52.566;13.346;2022-11-21T19:29:39;21.60;46.30
34776;DHT22;20989;52.566;13.346;2022-11-21T19:32:40;21.60;46.80
34776;DHT22;20989;52.566;13.346;2022-11-21T19:35:41;21.60;46.80
34776;DHT22;20989;52.566;13.346;2022-11-21T19:38:41;21.60;46.50
34776;DHT22;20989;52.566;13.346;2022-11-21T19:41:42;21.60;46.60
34776;DHT22;20989;52.566;13.346;2022-11-21T19:44:43;21.60;46.70
34776;DHT22;20989;52.566;13.346;2022-11-21T19:47:44;21.60;46.60
34776;DHT22;20989;52.566;13.346;2022-11-21T19:50:57;21.60;46.70
34776;DHT22;20989;52.566;13.346;2022-11-21T19:54:00;21.50;46.80
34776;DHT22;20989;52.566;13.346;2022-11-21T19:57:01;21.50;46.90
34776;DHT22;20989;52.566;13.346;2022-11-21T20:00:03;21.50;46.90
34776;DHT22;20989;52.566;13.346;2022-11-21T20:03:03;21.60;46.90
34776;DHT22;20989;52.566;13.346;2022-11-21T20:06:16;21.50;46.80
34776;DHT22;20989;52.566;13.346;2022-11-21T20:09:19;21.50;46.90
34776;DHT22;20989;52.566;13.346;2022-11-21T20:12:20;21.50;47.00
34776;DHT22;20989;52.566;13.346;2022-11-21T20:15:20;21.50;47.10
34776;DHT22;20989;52.566;13.346;2022-11-21T20:18:21;21.40;47.10
34776;DHT22;20989;52.566;13.346;2022-11-21T20:21:23;21.40;47.10
34776;DHT22;20989;52.566;13.346;2022-11-21T20:24:25;21.40;47.30
34776;DHT22;20989;52.566;13.346;2022-11-21T20:27:25;21.50;47.40
34776;DHT22;20989;52.566;13.346;2022-11-21T20:30:26;21.40;47.00
34776;DHT22;20989;52.566;13.346;2022-11-21T20:33:27;21.40;47.20
34776;DHT22;20989;52.566;13.346;2022-11-21T20:36:29;21.40;47.30
34776;DHT22;20989;52.566;13.346;2022-11-21T20:39:30;21.40;47.40
34776;DHT22;20989;52.566;13.346;2022-11-21T20:42:31;21.50;47.30
34776;DHT22;20989;52.566;13.346;2022-11-21T20:45:33;21.40;47.10
34776;DHT22;20989;52.566;13.346;2022-11-21T20:48:34;21.30;47.30
34776;DHT22;20989;52.566;13.346;2022-11-21T20:51:36;21.30;47.60
34776;DHT22;20989;52.566;13.346;2022-11-21T20:54:36;21.40;47.30